Temp: 7.8°C   Baro: 1033.2mb
  Wind: 2.0mph   Dir: NNE (13°)
  Rain: 0.0mm (0.0mm/hr)
  Solar: 454W/m2  Hum: 68%
 
Bath Spa Weather Historical Data
Daily Summary for February 26, 2020 Units:  Both    English   Metric
Next Day »
Daily Weekly Monthly Yearly Custom
  High: Low: Average:
Temperature: 47.5 °F /  8.6 °C 37.9 °F /  3.3 °C 41.5 °F /  5.3 °C
Dew Point: 37.6 °F /  3.1 °C 33.3 °F /  0.7 °C 35.2 °F /  1.8 °C
Humidity: 92% 61% 79%
Wind Speed: 17mph /  27.4km/h - 5.2mph /  8.4km/h
Wind Gust: 23mph /  37.0km/h - -
Wind direction- - WSW
Pressure: 29.8 in /  1009.0 hPa 29.4 in /  995.1 hPa -
Precipitation: 0.15 in /  3.8 mm    
Historical Graphs
 
 
Tabular Data for February 26, 2020
Time Temperature Dew Point Pressure Wind direction Wind Speed Wind Gust Humidity Rainfall Rate (Hourly) solar
00:00 37.9 °F /  3.3 °C 33.3 °F /  0.7 °C 29.6in /  1001.6hPa WNW 4mph /  6.4km/h 9mph /  14.5km/h 83% 0in /  0.0mm 0.00 W/m2
00:05 37.9 °F /  3.3 °C 33.3 °F /  0.7 °C 29.6in /  1001.6hPa West 6.9mph /  11.1km/h 9mph /  14.5km/h 83% 0in /  0.0mm 0.00 W/m2
00:10 37.9 °F /  3.3 °C 33.6 °F /  0.9 °C 29.6in /  1001.9hPa WNW 6.9mph /  11.1km/h 10mph /  16.1km/h 84% 0in /  0.0mm 0.00 W/m2
00:15 38.1 °F /  3.4 °C 33.4 °F /  0.8 °C 29.6in /  1001.9hPa West 6mph /  9.7km/h 14mph /  22.5km/h 83% 0in /  0.0mm 0.00 W/m2
00:20 38.1 °F /  3.4 °C 33.4 °F /  0.8 °C 29.6in /  1001.9hPa WNW 2mph /  3.2km/h 8mph /  12.9km/h 83% 0in /  0.0mm 0.00 W/m2
00:25 38.3 °F /  3.5 °C 33.6 °F /  0.9 °C 29.6in /  1002.3hPa NW 10.1mph /  16.3km/h 16mph /  25.7km/h 83% 0in /  0.0mm 0.00 W/m2
00:30 38.5 °F /  3.6 °C 33.8 °F /  1.0 °C 29.6in /  1002.3hPa WNW 2.9mph /  4.7km/h 10mph /  16.1km/h 83% 0in /  0.0mm 0.00 W/m2
00:35 38.5 °F /  3.6 °C 33.8 °F /  1.0 °C 29.6in /  1002.3hPa West 8.1mph /  13.0km/h 9mph /  14.5km/h 83% 0in /  0.0mm 0.00 W/m2
00:40 38.5 °F /  3.6 °C 33.8 °F /  1.0 °C 29.6in /  1002.3hPa West 8.9mph /  14.3km/h 10mph /  16.1km/h 83% 0in /  0.0mm 0.00 W/m2
00:45 38.5 °F /  3.6 °C 33.8 °F /  1.0 °C 29.6in /  1002.3hPa WNW 6.9mph /  11.1km/h 13mph /  20.9km/h 83% 0in /  0.0mm 0.00 W/m2
00:50 38.7 °F /  3.7 °C 34 °F /  1.1 °C 29.6in /  1002.3hPa NW 2.9mph /  4.7km/h 15mph /  24.1km/h 83% 0in /  0.0mm 0.00 W/m2
00:55 38.5 °F /  3.6 °C 33.8 °F /  1.0 °C 29.6in /  1002.3hPa West 6.9mph /  11.1km/h 11mph /  17.7km/h 83% 0in /  0.0mm 0.00 W/m2
01:00 38.7 °F /  3.7 °C 34 °F /  1.1 °C 29.6in /  1002.6hPa WNW 2mph /  3.2km/h 8mph /  12.9km/h 83% 0in /  0.0mm 0.00 W/m2
01:05 38.5 °F /  3.6 °C 34.2 °F /  1.2 °C 29.6in /  1002.6hPa NW 8.1mph /  13.0km/h 15mph /  24.1km/h 84% 0in /  0.0mm 0.00 W/m2
01:10 38.5 °F /  3.6 °C 34.2 °F /  1.2 °C 29.6in /  1002.6hPa West 8.1mph /  13.0km/h 13mph /  20.9km/h 84% 0in /  0.0mm 0.00 W/m2
01:15 38.5 °F /  3.6 °C 34.2 °F /  1.2 °C 29.6in /  1002.6hPa West 6.9mph /  11.1km/h 9mph /  14.5km/h 84% 0in /  0.0mm 0.00 W/m2
01:20 38.3 °F /  3.5 °C 34 °F /  1.1 °C 29.6in /  1002.9hPa West 4mph /  6.4km/h 11mph /  17.7km/h 84% 0in /  0.0mm 0.00 W/m2
01:25 38.1 °F /  3.4 °C 33.8 °F /  1.0 °C 29.6in /  1002.6hPa WNW 12.1mph /  19.5km/h 12mph /  19.3km/h 84% 0in /  0.0mm 0.00 W/m2
01:30 38.1 °F /  3.4 °C 34 °F /  1.1 °C 29.6in /  1002.6hPa WSW 6.9mph /  11.1km/h 10mph /  16.1km/h 85% 0in /  0.0mm 0.00 W/m2
01:35 38.1 °F /  3.4 °C 34 °F /  1.1 °C 29.6in /  1002.9hPa West 4.9mph /  7.9km/h 9mph /  14.5km/h 85% 0in /  0.0mm 0.00 W/m2
01:40 38.3 °F /  3.5 °C 34.2 °F /  1.2 °C 29.6in /  1002.9hPa WNW 4.9mph /  7.9km/h 10mph /  16.1km/h 85% 0in /  0.0mm 0.00 W/m2
01:45 38.5 °F /  3.6 °C 34.3 °F /  1.3 °C 29.6in /  1002.9hPa NW 8.1mph /  13.0km/h 17mph /  27.4km/h 85% 0in /  0.0mm 0.00 W/m2
01:50 38.7 °F /  3.7 °C 34.5 °F /  1.4 °C 29.6in /  1002.9hPa WNW 4.9mph /  7.9km/h 13mph /  20.9km/h 85% 0in /  0.0mm 0.00 W/m2
01:55 38.7 °F /  3.7 °C 34.5 °F /  1.4 °C 29.6in /  1003.3hPa WNW 6mph /  9.7km/h 7mph /  11.3km/h 85% 0in /  0.0mm 0.00 W/m2
02:00 38.7 °F /  3.7 °C 34.5 °F /  1.4 °C 29.6in /  1003.3hPa NW 6mph /  9.7km/h 8mph /  12.9km/h 85% 0in /  0.0mm 0.00 W/m2
02:05 38.8 °F /  3.8 °C 34.3 °F /  1.3 °C 29.6in /  1003.3hPa WNW 4.9mph /  7.9km/h 9mph /  14.5km/h 84% 0in /  0.0mm 0.00 W/m2
02:10 38.8 °F /  3.8 °C 34.3 °F /  1.3 °C 29.6in /  1003.6hPa West 6.9mph /  11.1km/h 8mph /  12.9km/h 84% 0in /  0.0mm 0.00 W/m2
02:15 38.8 °F /  3.8 °C 34.3 °F /  1.3 °C 29.6in /  1003.6hPa WNW 4.9mph /  7.9km/h 9mph /  14.5km/h 84% 0in /  0.0mm 0.00 W/m2
02:20 39 °F /  3.9 °C 34.5 °F /  1.4 °C 29.6in /  1003.6hPa West 6.9mph /  11.1km/h 10mph /  16.1km/h 84% 0in /  0.0mm 5.00 W/m2
02:25 39 °F /  3.9 °C 34.5 °F /  1.4 °C 29.6in /  1003.9hPa NNW 8.9mph /  14.3km/h 10mph /  16.1km/h 84% 0in /  0.0mm 11.00 W/m2
02:30 39 °F /  3.9 °C 34.5 °F /  1.4 °C 29.6in /  1003.9hPa West 4mph /  6.4km/h 12mph /  19.3km/h 84% 0in /  0.0mm 12.00 W/m2
02:35 39.2 °F /  4.0 °C 34.7 °F /  1.5 °C 29.6in /  1003.9hPa NW 4.9mph /  7.9km/h 11mph /  17.7km/h 84% 0in /  0.0mm 14.00 W/m2
02:40 39.4 °F /  4.1 °C 34.9 °F /  1.6 °C 29.6in /  1003.9hPa WNW 6mph /  9.7km/h 7mph /  11.3km/h 84% 0in /  0.0mm 18.00 W/m2
02:45 39.4 °F /  4.1 °C 34.9 °F /  1.6 °C 29.7in /  1004.3hPa WNW 8.1mph /  13.0km/h 12mph /  19.3km/h 84% 0in /  0.0mm 16.00 W/m2
02:50 39.4 °F /  4.1 °C 34.7 °F /  1.5 °C 29.7in /  1004.3hPa West 6mph /  9.7km/h 15mph /  24.1km/h 83% 0in /  0.0mm 21.00 W/m2
02:55 39.6 °F /  4.2 °C 34.9 °F /  1.6 °C 29.7in /  1004.6hPa WNW 8.9mph /  14.3km/h 12mph /  19.3km/h 83% 0in /  0.0mm 46.00 W/m2
03:00 39.6 °F /  4.2 °C 34.9 °F /  1.6 °C 29.7in /  1004.6hPa NNW 8.9mph /  14.3km/h 12mph /  19.3km/h 83% 0in /  0.0mm 53.00 W/m2
03:05 39.7 °F /  4.3 °C 34.7 °F /  1.5 °C 29.7in /  1004.6hPa WNW 6.9mph /  11.1km/h 11mph /  17.7km/h 82% 0in /  0.0mm 40.00 W/m2
03:10 39.7 °F /  4.3 °C 34.7 °F /  1.5 °C 29.7in /  1004.6hPa WNW 4.9mph /  7.9km/h 13mph /  20.9km/h 82% 0in /  0.0mm 49.00 W/m2
03:15 39.9 °F /  4.4 °C 34.9 °F /  1.6 °C 29.7in /  1004.6hPa NW 6.9mph /  11.1km/h 11mph /  17.7km/h 82% 0in /  0.0mm 69.00 W/m2
03:20 39.9 °F /  4.4 °C 34.9 °F /  1.6 °C 29.7in /  1004.6hPa WSW 13mph /  20.9km/h 16mph /  25.7km/h 82% 0in /  0.0mm 65.00 W/m2
03:25 39.9 °F /  4.4 °C 34.9 °F /  1.6 °C 29.7in /  1005.0hPa West 4.9mph /  7.9km/h 10mph /  16.1km/h 82% 0in /  0.0mm 114.00 W/m2
03:30 40.1 °F /  4.5 °C 35.1 °F /  1.7 °C 29.7in /  1005.0hPa WNW 10.1mph /  16.3km/h 18mph /  29.0km/h 82% 0in /  0.0mm 65.00 W/m2
03:35 40.3 °F /  4.6 °C 34.9 °F /  1.6 °C 29.7in /  1005.0hPa SW 10.1mph /  16.3km/h 12mph /  19.3km/h 81% 0in /  0.0mm 74.00 W/m2
03:40 40.1 °F /  4.5 °C 34.7 °F /  1.5 °C 29.7in /  1005.3hPa West 6.9mph /  11.1km/h 13mph /  20.9km/h 81% 0in /  0.0mm 90.00 W/m2
03:45 40.3 °F /  4.6 °C 35.2 °F /  1.8 °C 29.7in /  1005.3hPa WNW 8.1mph /  13.0km/h 11mph /  17.7km/h 82% 0in /  0.0mm 123.00 W/m2
03:50 40.5 °F /  4.7 °C 35.1 °F /  1.7 °C 29.7in /  1005.3hPa West 10.1mph /  16.3km/h 18mph /  29.0km/h 81% 0in /  0.0mm 128.00 W/m2
03:55 40.6 °F /  4.8 °C 35.2 °F /  1.8 °C 29.7in /  1005.6hPa NNW 6.9mph /  11.1km/h 17mph /  27.4km/h 81% 0in /  0.0mm 95.00 W/m2
04:00 40.6 °F /  4.8 °C 35.2 °F /  1.8 °C 29.7in /  1005.6hPa WNW 8.1mph /  13.0km/h 16mph /  25.7km/h 81% 0in /  0.0mm 107.00 W/m2
04:05 40.6 °F /  4.8 °C 35.2 °F /  1.8 °C 29.7in /  1005.6hPa West 8.1mph /  13.0km/h 9mph /  14.5km/h 81% 0in /  0.0mm 107.00 W/m2
04:10 41 °F /  5.0 °C 36 °F /  2.2 °C 29.7in /  1005.6hPa WNW 4.9mph /  7.9km/h 11mph /  17.7km/h 82% 0in /  0.0mm 199.00 W/m2
04:15 41.4 °F /  5.2 °C 36 °F /  2.2 °C 29.7in /  1005.6hPa WSW 6mph /  9.7km/h 11mph /  17.7km/h 81% 0in /  0.0mm 237.00 W/m2
04:20 41.5 °F /  5.3 °C 36.1 °F /  2.3 °C 29.7in /  1005.6hPa West 6mph /  9.7km/h 11mph /  17.7km/h 81% 0in /  0.0mm 128.00 W/m2
04:25 41.7 °F /  5.4 °C 36.3 °F /  2.4 °C 29.7in /  1006.0hPa West 6mph /  9.7km/h 11mph /  17.7km/h 81% 0in /  0.0mm 262.00 W/m2
04:30 42.3 °F /  5.7 °C 36.9 °F /  2.7 °C 29.7in /  1006.0hPa West 8.9mph /  14.3km/h 9mph /  14.5km/h 81% 0in /  0.0mm 227.00 W/m2
04:35 42.3 °F /  5.7 °C 36.5 °F /  2.5 °C 29.7in /  1006.0hPa WNW 4.9mph /  7.9km/h 11mph /  17.7km/h 80% 0in /  0.0mm 294.00 W/m2
04:40 42.4 °F /  5.8 °C 36.3 °F /  2.4 °C 29.7in /  1006.0hPa West 16.1mph /  25.9km/h 16mph /  25.7km/h 79% 0in /  0.0mm 308.00 W/m2
04:45 42.3 °F /  5.7 °C 36 °F /  2.2 °C 29.7in /  1006.0hPa WNW 6.9mph /  11.1km/h 17mph /  27.4km/h 78% 0in /  0.0mm 162.00 W/m2
04:50 42.3 °F /  5.7 °C 36 °F /  2.2 °C 29.7in /  1006.0hPa West 14.1mph /  22.7km/h 16mph /  25.7km/h 78% 0in /  0.0mm 153.00 W/m2
04:55 42.4 °F /  5.8 °C 36.1 °F /  2.3 °C 29.7in /  1006.0hPa WNW 4.9mph /  7.9km/h 16mph /  25.7km/h 78% 0in /  0.0mm 323.00 W/m2
05:00 42.6 °F /  5.9 °C 36.3 °F /  2.4 °C 29.7in /  1006.0hPa NW 8.9mph /  14.3km/h 16mph /  25.7km/h 78% 0in /  0.0mm 183.00 W/m2
05:05 43 °F /  6.1 °C 36.7 °F /  2.6 °C 29.7in /  1006.0hPa NW 13mph /  20.9km/h 16mph /  25.7km/h 78% 0in /  0.0mm 411.00 W/m2
05:10 43.3 °F /  6.3 °C 36.7 °F /  2.6 °C 29.7in /  1006.3hPa NNW 4.9mph /  7.9km/h 12mph /  19.3km/h 77% 0in /  0.0mm 236.00 W/m2
05:15 43.3 °F /  6.3 °C 36.3 °F /  2.4 °C 29.7in /  1006.3hPa WNW 4mph /  6.4km/h 15mph /  24.1km/h 76% 0in /  0.0mm 388.00 W/m2
05:20 43.7 °F /  6.5 °C 36.7 °F /  2.6 °C 29.7in /  1006.3hPa West 10.1mph /  16.3km/h 20mph /  32.2km/h 76% 0in /  0.0mm 420.00 W/m2
05:25 43.5 °F /  6.4 °C 36.1 °F /  2.3 °C 29.7in /  1006.3hPa NW 4mph /  6.4km/h 11mph /  17.7km/h 75% 0in /  0.0mm 225.00 W/m2
05:30 43.9 °F /  6.6 °C 36.5 °F /  2.5 °C 29.7in /  1006.3hPa West 16.1mph /  25.9km/h 21mph /  33.8km/h 75% 0in /  0.0mm 253.00 W/m2
05:35 43.9 °F /  6.6 °C 36.1 °F /  2.3 °C 29.7in /  1006.3hPa NW 8.9mph /  14.3km/h 15mph /  24.1km/h 74% 0in /  0.0mm 169.00 W/m2
05:40 43.3 °F /  6.3 °C 35.6 °F /  2.0 °C 29.7in /  1006.7hPa NW 11mph /  17.7km/h 17mph /  27.4km/h 74% 0in /  0.0mm 127.00 W/m2
05:45 43.3 °F /  6.3 °C 35.6 °F /  2.0 °C 29.7in /  1006.7hPa WNW 15mph /  24.1km/h 17mph /  27.4km/h 74% 0in /  0.0mm 144.00 W/m2
05:50 43.2 °F /  6.2 °C 35.4 °F /  1.9 °C 29.7in /  1006.7hPa NW 11mph /  17.7km/h 17mph /  27.4km/h 74% 0in /  0.0mm 199.00 W/m2
05:55 43.3 °F /  6.3 °C 35.6 °F /  2.0 °C 29.7in /  1006.7hPa West 8.9mph /  14.3km/h 17mph /  27.4km/h 74% 0in /  0.0mm 220.00 W/m2
06:00 44.1 °F /  6.7 °C 36.7 °F /  2.6 °C 29.7in /  1007.0hPa NW 8.1mph /  13.0km/h 19mph /  30.6km/h 75% 0in /  0.0mm 304.00 W/m2
06:05 43.9 °F /  6.6 °C 36.1 °F /  2.3 °C 29.7in /  1007.0hPa West 17mph /  27.4km/h 23mph /  37.0km/h 74% 0in /  0.0mm 209.00 W/m2
06:10 44.1 °F /  6.7 °C 36.3 °F /  2.4 °C 29.7in /  1007.0hPa West 4mph /  6.4km/h 15mph /  24.1km/h 74% 0in /  0.0mm 244.00 W/m2
06:15 44.1 °F /  6.7 °C 36 °F /  2.2 °C 29.7in /  1007.0hPa NW 4.9mph /  7.9km/h 15mph /  24.1km/h 73% 0in /  0.0mm 230.00 W/m2
06:20 44.1 °F /  6.7 °C 36 °F /  2.2 °C 29.7in /  1007.3hPa West 13mph /  20.9km/h 13mph /  20.9km/h 73% 0in /  0.0mm 149.00 W/m2
06:25 44.1 °F /  6.7 °C 36 °F /  2.2 °C 29.7in /  1007.3hPa NW 6.9mph /  11.1km/h 13mph /  20.9km/h 73% 0in /  0.0mm 283.00 W/m2
06:30 44.2 °F /  6.8 °C 35.8 °F /  2.1 °C 29.7in /  1007.3hPa WNW 11mph /  17.7km/h 12mph /  19.3km/h 72% 0in /  0.0mm 179.00 W/m2
06:35 44.2 °F /  6.8 °C 35.8 °F /  2.1 °C 29.7in /  1007.3hPa NW 11mph /  17.7km/h 19mph /  30.6km/h 72% 0in /  0.0mm 330.00 W/m2
06:40 44.2 °F /  6.8 °C 35.8 °F /  2.1 °C 29.7in /  1007.3hPa WNW 8.9mph /  14.3km/h 15mph /  24.1km/h 72% 0in /  0.0mm 253.00 W/m2
06:45 44.4 °F /  6.9 °C 36 °F /  2.2 °C 29.7in /  1007.3hPa West 8.9mph /  14.3km/h 16mph /  25.7km/h 72% 0in /  0.0mm 230.00 W/m2
06:50 44.8 °F /  7.1 °C 36 °F /  2.2 °C 29.7in /  1007.3hPa NW 8.9mph /  14.3km/h 15mph /  24.1km/h 71% 0in /  0.0mm 218.00 W/m2
06:55 44.6 °F /  7.0 °C 35.4 °F /  1.9 °C 29.7in /  1007.3hPa WNW 6.9mph /  11.1km/h 19mph /  30.6km/h 70% 0in /  0.0mm 207.00 W/m2
07:00 44.8 °F /  7.1 °C 36 °F /  2.2 °C 29.7in /  1007.3hPa NW 6.9mph /  11.1km/h 11mph /  17.7km/h 71% 0in /  0.0mm 350.00 W/m2
07:05 45 °F /  7.2 °C 36.1 °F /  2.3 °C 29.7in /  1007.3hPa WNW 12.1mph /  19.5km/h 13mph /  20.9km/h 71% 0in /  0.0mm 172.00 W/m2
07:10 44.8 °F /  7.1 °C 35.6 °F /  2.0 °C 29.7in /  1007.3hPa NW 12.1mph /  19.5km/h 16mph /  25.7km/h 70% 0in /  0.0mm 179.00 W/m2
07:15 45 °F /  7.2 °C 35.8 °F /  2.1 °C 29.8in /  1007.7hPa NW 6mph /  9.7km/h 11mph /  17.7km/h 70% 0in /  0.0mm 663.00 W/m2
07:20 45.3 °F /  7.4 °C 36.1 °F /  2.3 °C 29.8in /  1007.7hPa West 6.9mph /  11.1km/h 14mph /  22.5km/h 70% 0in /  0.0mm 218.00 W/m2
07:25 45.1 °F /  7.3 °C 36 °F /  2.2 °C 29.8in /  1007.7hPa NW 10.1mph /  16.3km/h 16mph /  25.7km/h 70% 0in /  0.0mm 225.00 W/m2
07:30 45.1 °F /  7.3 °C 36 °F /  2.2 °C 29.8in /  1007.7hPa NW 6mph /  9.7km/h 13mph /  20.9km/h 70% 0in /  0.0mm 218.00 W/m2
07:35 44.8 °F /  7.1 °C 35.6 °F /  2.0 °C 29.8in /  1007.7hPa NW 4.9mph /  7.9km/h 18mph /  29.0km/h 70% 0in /  0.0mm 204.00 W/m2
07:40 44.8 °F /  7.1 °C 35.6 °F /  2.0 °C 29.8in /  1007.7hPa West 8.1mph /  13.0km/h 12mph /  19.3km/h 70% 0in /  0.0mm 202.00 W/m2
07:45 45.1 °F /  7.3 °C 36.3 °F /  2.4 °C 29.8in /  1007.7hPa WNW 6mph /  9.7km/h 13mph /  20.9km/h 71% 0in /  0.0mm 209.00 W/m2
07:50 45.1 °F /  7.3 °C 36 °F /  2.2 °C 29.8in /  1008.0hPa NW 8.9mph /  14.3km/h 14mph /  22.5km/h 70% 0in /  0.0mm 195.00 W/m2
07:55 44.8 °F /  7.1 °C 35.2 °F /  1.8 °C 29.8in /  1008.0hPa West 8.9mph /  14.3km/h 17mph /  27.4km/h 69% 0in /  0.0mm 162.00 W/m2
08:00 44.8 °F /  7.1 °C 35.6 °F /  2.0 °C 29.8in /  1008.0hPa WNW 8.1mph /  13.0km/h 15mph /  24.1km/h 70% 0in /  0.0mm 223.00 W/m2
08:05 44.8 °F /  7.1 °C 35.2 °F /  1.8 °C 29.8in /  1008.0hPa WNW 6.9mph /  11.1km/h 17mph /  27.4km/h 69% 0in /  0.0mm 163.00 W/m2
08:10 44.6 °F /  7.0 °C 35.4 °F /  1.9 °C 29.8in /  1008.0hPa WNW 4.9mph /  7.9km/h 13mph /  20.9km/h 70% 0in /  0.0mm 220.00 W/m2
08:15 44.6 °F /  7.0 °C 35.4 °F /  1.9 °C 29.8in /  1008.0hPa WNW 6.9mph /  11.1km/h 13mph /  20.9km/h 70% 0in /  0.0mm 151.00 W/m2
08:20 44.8 °F /  7.1 °C 36 °F /  2.2 °C 29.8in /  1008.0hPa West 8.9mph /  14.3km/h 16mph /  25.7km/h 71% 0in /  0.0mm 192.00 W/m2
08:25 45.1 °F /  7.3 °C 36 °F /  2.2 °C 29.8in /  1008.4hPa WNW 15mph /  24.1km/h 17mph /  27.4km/h 70% 0in /  0.0mm 339.00 W/m2
08:30 45.9 °F /  7.7 °C 37 °F /  2.8 °C 29.8in /  1008.4hPa NW 6mph /  9.7km/h 10mph /  16.1km/h 71% 0in /  0.0mm 612.00 W/m2
08:35 46.4 °F /  8.0 °C 36.5 °F /  2.5 °C 29.8in /  1008.0hPa WNW 8.1mph /  13.0km/h 13mph /  20.9km/h 68% 0in /  0.0mm 445.00 W/m2
08:40 46.8 °F /  8.2 °C 36.7 °F /  2.6 °C 29.8in /  1008.0hPa West 6mph /  9.7km/h 10mph /  16.1km/h 68% 0in /  0.0mm 592.00 W/m2
08:45 46 °F /  7.8 °C 35.2 °F /  1.8 °C 29.8in /  1008.4hPa NW 12.1mph /  19.5km/h 17mph /  27.4km/h 66% 0in /  0.0mm 174.00 W/m2
08:50 45.7 °F /  7.6 °C 35.1 °F /  1.7 °C 29.8in /  1008.4hPa North 8.1mph /  13.0km/h 14mph /  22.5km/h 66% 0in /  0.0mm 174.00 W/m2
08:55 45.7 °F /  7.6 °C 35.1 °F /  1.7 °C 29.8in /  1008.4hPa West 8.1mph /  13.0km/h 14mph /  22.5km/h 66% 0in /  0.0mm 179.00 W/m2
09:00 45.9 °F /  7.7 °C 35.1 °F /  1.7 °C 29.8in /  1008.4hPa NW 12.1mph /  19.5km/h 15mph /  24.1km/h 66% 0in /  0.0mm 278.00 W/m2
09:05 45.7 °F /  7.6 °C 35.1 °F /  1.7 °C 29.8in /  1008.4hPa WNW 6.9mph /  11.1km/h 14mph /  22.5km/h 66% 0in /  0.0mm 127.00 W/m2
09:10 45.7 °F /  7.6 °C 35.4 °F /  1.9 °C 29.8in /  1008.4hPa West 6.9mph /  11.1km/h 12mph /  19.3km/h 67% 0in /  0.0mm 132.00 W/m2
09:15 45.5 °F /  7.5 °C 36 °F /  2.2 °C 29.8in /  1008.4hPa NW 4.9mph /  7.9km/h 18mph /  29.0km/h 69% 0in /  0.0mm 146.00 W/m2
09:20 45.7 °F /  7.6 °C 36.1 °F /  2.3 °C 29.8in /  1008.4hPa WNW 8.1mph /  13.0km/h 13mph /  20.9km/h 69% 0in /  0.0mm 239.00 W/m2
09:25 46.2 °F /  7.9 °C 36.7 °F /  2.6 °C 29.8in /  1008.4hPa WNW 6mph /  9.7km/h 10mph /  16.1km/h 69% 0in /  0.0mm 139.00 W/m2
09:30 45.9 °F /  7.7 °C 35.1 °F /  1.7 °C 29.8in /  1008.4hPa NNW 4mph /  6.4km/h 14mph /  22.5km/h 66% 0in /  0.0mm 102.00 W/m2
09:35 45.7 °F /  7.6 °C 34.5 °F /  1.4 °C 29.8in /  1008.4hPa NNW 2.9mph /  4.7km/h 11mph /  17.7km/h 65% 0in /  0.0mm 118.00 W/m2
09:40 45.7 °F /  7.6 °C 35.4 °F /  1.9 °C 29.8in /  1008.4hPa WNW 2.9mph /  4.7km/h 8mph /  12.9km/h 67% 0in /  0.0mm 169.00 W/m2
09:45 45.9 °F /  7.7 °C 36 °F /  2.2 °C 29.8in /  1008.4hPa West 6mph /  9.7km/h 10mph /  16.1km/h 68% 0in /  0.0mm 350.00 W/m2
09:50 46.6 °F /  8.1 °C 35.4 °F /  1.9 °C 29.8in /  1008.4hPa West 11mph /  17.7km/h 15mph /  24.1km/h 65% 0in /  0.0mm 468.00 W/m2
09:55 46.8 °F /  8.2 °C 34.5 °F /  1.4 °C 29.8in /  1008.4hPa WNW 8.9mph /  14.3km/h 19mph /  30.6km/h 62% 0in /  0.0mm 404.00 W/m2
10:00 46.9 °F /  8.3 °C 35.1 °F /  1.7 °C 29.8in /  1008.4hPa NW 6mph /  9.7km/h 10mph /  16.1km/h 63% 0in /  0.0mm 424.00 W/m2
10:05 47.1 °F /  8.4 °C 34.3 °F /  1.3 °C 29.8in /  1008.7hPa WNW 13mph /  20.9km/h 16mph /  25.7km/h 61% 0in /  0.0mm 369.00 W/m2
10:10 46.9 °F /  8.3 °C 35.1 °F /  1.7 °C 29.8in /  1008.7hPa WNW 12.1mph /  19.5km/h 14mph /  22.5km/h 63% 0in /  0.0mm 352.00 W/m2
10:15 47.1 °F /  8.4 °C 34.7 °F /  1.5 °C 29.8in /  1008.4hPa West 4.9mph /  7.9km/h 11mph /  17.7km/h 62% 0in /  0.0mm 323.00 W/m2
10:20 47.5 °F /  8.6 °C 34.7 °F /  1.5 °C 29.8in /  1008.7hPa WSW 8.9mph /  14.3km/h 17mph /  27.4km/h 61% 0in /  0.0mm 301.00 W/m2
10:25 46.9 °F /  8.3 °C 35.1 °F /  1.7 °C 29.8in /  1008.7hPa WNW 8.9mph /  14.3km/h 14mph /  22.5km/h 63% 0in /  0.0mm 308.00 W/m2
10:30 46.6 °F /  8.1 °C 35.4 °F /  1.9 °C 29.8in /  1008.7hPa WNW 10.1mph /  16.3km/h 13mph /  20.9km/h 65% 0in /  0.0mm 109.00 W/m2
10:35 45.9 °F /  7.7 °C 35.6 °F /  2.0 °C 29.8in /  1008.7hPa WSW 2.9mph /  4.7km/h 12mph /  19.3km/h 67% 0in /  0.0mm 278.00 W/m2
10:40 46 °F /  7.8 °C 36.9 °F /  2.7 °C 29.8in /  1008.7hPa West 13mph /  20.9km/h 19mph /  30.6km/h 70% 0in /  0.0mm 255.00 W/m2
10:45 45.9 °F /  7.7 °C 37.4 °F /  3.0 °C 29.8in /  1008.7hPa West 8.9mph /  14.3km/h 16mph /  25.7km/h 72% 0in /  0.0mm 257.00 W/m2
10:50 45.9 °F /  7.7 °C 37.4 °F /  3.0 °C 29.8in /  1008.7hPa WNW 11mph /  17.7km/h 16mph /  25.7km/h 72% 0in /  0.0mm 267.00 W/m2
10:55 45.7 °F /  7.6 °C 37.2 °F /  2.9 °C 29.8in /  1008.7hPa WNW 6mph /  9.7km/h 17mph /  27.4km/h 72% 0in /  0.0mm 167.00 W/m2
11:00 45.3 °F /  7.4 °C 37.2 °F /  2.9 °C 29.8in /  1008.7hPa West 8.9mph /  14.3km/h 17mph /  27.4km/h 73% 0in /  0.0mm 76.00 W/m2
11:05 45 °F /  7.2 °C 37.6 °F /  3.1 °C 29.8in /  1008.7hPa WNW 8.9mph /  14.3km/h 13mph /  20.9km/h 75% 0in /  0.0mm 67.00 W/m2
11:10 44.6 °F /  7.0 °C 37.2 °F /  2.9 °C 29.8in /  1008.7hPa West 6.9mph /  11.1km/h 13mph /  20.9km/h 75% 0in /  0.0mm 63.00 W/m2
11:15 44.4 °F /  6.9 °C 37.4 °F /  3.0 °C 29.8in /  1008.7hPa NW 8.9mph /  14.3km/h 14mph /  22.5km/h 76% 0in /  0.0mm 70.00 W/m2
11:20 44.4 °F /  6.9 °C 37.4 °F /  3.0 °C 29.8in /  1008.7hPa WSW 6mph /  9.7km/h 14mph /  22.5km/h 76% 0in /  0.0mm 95.00 W/m2
11:25 43.9 °F /  6.6 °C 36.5 °F /  2.5 °C 29.8in /  1009.0hPa WNW 11mph /  17.7km/h 17mph /  27.4km/h 75% 0in /  0.0mm 84.00 W/m2
11:30 43.3 °F /  6.3 °C 36 °F /  2.2 °C 29.8in /  1008.7hPa WNW 8.9mph /  14.3km/h 15mph /  24.1km/h 75% 0in /  0.0mm 77.00 W/m2
11:35 43.2 °F /  6.2 °C 36.1 °F /  2.3 °C 29.8in /  1008.7hPa West 8.1mph /  13.0km/h 11mph /  17.7km/h 76% 0in /  0.0mm 63.00 W/m2
11:40 43 °F /  6.1 °C 36 °F /  2.2 °C 29.8in /  1008.7hPa WNW 4.9mph /  7.9km/h 12mph /  19.3km/h 76% 0in /  0.0mm 67.00 W/m2
11:45 43.2 °F /  6.2 °C 36.1 °F /  2.3 °C 29.8in /  1008.7hPa WNW 10.1mph /  16.3km/h 14mph /  22.5km/h 76% 0in /  0.0mm 69.00 W/m2
11:50 43.2 °F /  6.2 °C 36.1 °F /  2.3 °C 29.8in /  1008.4hPa NW 13mph /  20.9km/h 15mph /  24.1km/h 76% 0in /  0.0mm 67.00 W/m2
11:55 43.3 °F /  6.3 °C 36.3 °F /  2.4 °C 29.8in /  1008.7hPa WNW 2.9mph /  4.7km/h 11mph /  17.7km/h 76% 0in /  0.0mm 62.00 W/m2
12:00 43.5 °F /  6.4 °C 36.5 °F /  2.5 °C 29.8in /  1008.7hPa WNW 6.9mph /  11.1km/h 11mph /  17.7km/h 76% 0in /  0.0mm 53.00 W/m2
12:05 43.5 °F /  6.4 °C 36.1 °F /  2.3 °C 29.8in /  1008.7hPa WNW 2mph /  3.2km/h 11mph /  17.7km/h 75% 0in /  0.0mm 42.00 W/m2
12:10 43.5 °F /  6.4 °C 36.5 °F /  2.5 °C 29.8in /  1008.7hPa NW 6mph /  9.7km/h 9mph /  14.5km/h 76% 0in /  0.0mm 30.00 W/m2
12:15 43.3 °F /  6.3 °C 36 °F /  2.2 °C 29.8in /  1008.7hPa West 6.9mph /  11.1km/h 15mph /  24.1km/h 75% 0in /  0.0mm 21.00 W/m2
12:20 43.3 °F /  6.3 °C 36.3 °F /  2.4 °C 29.8in /  1009.0hPa West 8.9mph /  14.3km/h 13mph /  20.9km/h 76% 0in /  0.0mm 16.00 W/m2
12:25 43.2 °F /  6.2 °C 36.1 °F /  2.3 °C 29.8in /  1008.7hPa WNW 10.1mph /  16.3km/h 10mph /  16.1km/h 76% 0in /  0.0mm 11.00 W/m2
12:30 43 °F /  6.1 °C 36.3 °F /  2.4 °C 29.8in /  1009.0hPa West 4.9mph /  7.9km/h 11mph /  17.7km/h 77% 0in /  0.0mm 7.00 W/m2
12:35 43 °F /  6.1 °C 36.3 °F /  2.4 °C 29.8in /  1009.0hPa WNW 8.1mph /  13.0km/h 14mph /  22.5km/h 77% 0in /  0.0mm 7.00 W/m2
12:40 42.8 °F /  6.0 °C 36.1 °F /  2.3 °C 29.8in /  1009.0hPa West 2.9mph /  4.7km/h 12mph /  19.3km/h 77% 0in /  0.0mm 0.00 W/m2
12:45 42.6 °F /  5.9 °C 36 °F /  2.2 °C 29.8in /  1008.7hPa West 6mph /  9.7km/h 9mph /  14.5km/h 77% 0in /  0.0mm 0.00 W/m2
12:51 42.4 °F /  5.8 °C 36.1 °F /  2.3 °C 29.8in /  1008.7hPa WSW 8.1mph /  13.0km/h 8mph /  12.9km/h 78% 0in /  0.0mm 0.00 W/m2
12:55 42.3 °F /  5.7 °C 36 °F /  2.2 °C 29.8in /  1008.7hPa WNW 4mph /  6.4km/h 7mph /  11.3km/h 78% 0in /  0.0mm 0.00 W/m2
13:00 42.3 °F /  5.7 °C 36 °F /  2.2 °C 29.8in /  1008.7hPa West 6.9mph /  11.1km/h 8mph /  12.9km/h 78% 0in /  0.0mm 0.00 W/m2
13:05 42.1 °F /  5.6 °C 35.8 °F /  2.1 °C 29.8in /  1008.7hPa West 4mph /  6.4km/h 10mph /  16.1km/h 78% 0in /  0.0mm 0.00 W/m2
13:10 41.9 °F /  5.5 °C 35.6 °F /  2.0 °C 29.8in /  1008.7hPa West 2mph /  3.2km/h 7mph /  11.3km/h 78% 0in /  0.0mm 0.00 W/m2
13:15 41.5 °F /  5.3 °C 35.2 °F /  1.8 °C 29.8in /  1008.7hPa WNW 6.9mph /  11.1km/h 9mph /  14.5km/h 78% 0in /  0.0mm 0.00 W/m2
13:20 41.5 °F /  5.3 °C 35.2 °F /  1.8 °C 29.8in /  1008.7hPa West 4mph /  6.4km/h 6mph /  9.7km/h 78% 0in /  0.0mm 0.00 W/m2
13:25 41.5 °F /  5.3 °C 35.2 °F /  1.8 °C 29.8in /  1008.7hPa West 0.9mph /  1.4km/h 5mph /  8.0km/h 78% 0in /  0.0mm 0.00 W/m2
13:30 41.4 °F /  5.2 °C 35.1 °F /  1.7 °C 29.8in /  1008.7hPa WNW 2mph /  3.2km/h 4mph /  6.4km/h 78% 0in /  0.0mm 0.00 W/m2
13:35 41.2 °F /  5.1 °C 34.9 °F /  1.6 °C 29.8in /  1009.0hPa WNW 2.9mph /  4.7km/h 4mph /  6.4km/h 78% 0in /  0.0mm 0.00 W/m2
13:40 41 °F /  5.0 °C 34.7 °F /  1.5 °C 29.8in /  1009.0hPa WNW 2mph /  3.2km/h 4mph /  6.4km/h 78% 0in /  0.0mm 0.00 W/m2
13:45 40.8 °F /  4.9 °C 34.5 °F /  1.4 °C 29.8in /  1008.7hPa West 2mph /  3.2km/h 4mph /  6.4km/h 78% 0in /  0.0mm 0.00 W/m2
13:50 40.8 °F /  4.9 °C 34.5 °F /  1.4 °C 29.8in /  1008.7hPa WNW 0.9mph /  1.4km/h 4mph /  6.4km/h 78% 0in /  0.0mm 0.00 W/m2
13:55 40.6 °F /  4.8 °C 34.3 °F /  1.3 °C 29.8in /  1008.7hPa WNW 2.9mph /  4.7km/h 4mph /  6.4km/h 78% 0in /  0.0mm 0.00 W/m2
14:00 40.5 °F /  4.7 °C 34.5 °F /  1.4 °C 29.8in /  1008.7hPa WNW 0.9mph /  1.4km/h 3mph /  4.8km/h 79% 0in /  0.0mm 0.00 W/m2
14:05 40.5 °F /  4.7 °C 34.5 °F /  1.4 °C 29.8in /  1008.7hPa Calm   3mph /  4.8km/h 79% 0in /  0.0mm 0.00 W/m2
14:10 40.3 °F /  4.6 °C 34.3 °F /  1.3 °C 29.8in /  1008.7hPa WNW 2mph /  3.2km/h 2mph /  3.2km/h 79% 0in /  0.0mm 0.00 W/m2
14:15 40.1 °F /  4.5 °C 34.2 °F /  1.2 °C 29.8in /  1008.7hPa WNW 2mph /  3.2km/h 3mph /  4.8km/h 79% 0in /  0.0mm 0.00 W/m2
14:20 39.9 °F /  4.4 °C 34 °F /  1.1 °C 29.8in /  1008.7hPa West 2mph /  3.2km/h 4mph /  6.4km/h 79% 0in /  0.0mm 0.00 W/m2
14:25 40.1 °F /  4.5 °C 34.2 °F /  1.2 °C 29.8in /  1008.7hPa West 2mph /  3.2km/h 4mph /  6.4km/h 79% 0in /  0.0mm 0.00 W/m2
14:30 40.1 °F /  4.5 °C 34.2 °F /  1.2 °C 29.8in /  1008.7hPa West 2.9mph /  4.7km/h 7mph /  11.3km/h 79% 0in /  0.0mm 0.00 W/m2
14:35 40.3 °F /  4.6 °C 34.3 °F /  1.3 °C 29.8in /  1008.4hPa Calm   3mph /  4.8km/h 79% 0in /  0.0mm 0.00 W/m2
14:40 40.3 °F /  4.6 °C 34.3 °F /  1.3 °C 29.8in /  1008.4hPa West 4mph /  6.4km/h 4mph /  6.4km/h 79% 0in /  0.0mm 0.00 W/m2
14:45 40.1 °F /  4.5 °C 34.2 °F /  1.2 °C 29.8in /  1008.4hPa West 2mph /  3.2km/h 2mph /  3.2km/h 79% 0in /  0.0mm 0.00 W/m2
14:50 40.3 °F /  4.6 °C 34.3 °F /  1.3 °C 29.8in /  1008.4hPa Calm   1mph /  1.6km/h 79% 0in /  0.0mm 0.00 W/m2
14:55 40.3 °F /  4.6 °C 34.3 °F /  1.3 °C 29.8in /  1008.4hPa Calm     79% 0in /  0.0mm 0.00 W/m2
15:00 40.1 °F /  4.5 °C 34.2 °F /  1.2 °C 29.8in /  1008.4hPa Calm     79% 0in /  0.0mm 0.00 W/m2
15:05 39.9 °F /  4.4 °C 34.3 °F /  1.3 °C 29.8in /  1008.0hPa Calm   1mph /  1.6km/h 80% 0in /  0.0mm 0.00 W/m2
15:10 39.9 °F /  4.4 °C 34.3 °F /  1.3 °C 29.8in /  1008.0hPa West 2mph /  3.2km/h 2mph /  3.2km/h 80% 0in /  0.0mm 0.00 W/m2
15:15 39.7 °F /  4.3 °C 34.2 °F /  1.2 °C 29.8in /  1007.7hPa West 2mph /  3.2km/h 3mph /  4.8km/h 80% 0in /  0.0mm 0.00 W/m2
15:20 39.6 °F /  4.2 °C 34 °F /  1.1 °C 29.8in /  1007.7hPa West 2mph /  3.2km/h 4mph /  6.4km/h 80% 0in /  0.0mm 0.00 W/m2
15:26 39.6 °F /  4.2 °C 34 °F /  1.1 °C 29.8in /  1007.7hPa WSW 4mph /  6.4km/h 4mph /  6.4km/h 80% 0in /  0.0mm 0.00 W/m2
15:30 39.6 °F /  4.2 °C 34 °F /  1.1 °C 29.8in /  1007.7hPa SW 0.9mph /  1.4km/h 7mph /  11.3km/h 80% 0in /  0.0mm 0.00 W/m2
15:35 39.7 °F /  4.3 °C 34.2 °F /  1.2 °C 29.8in /  1007.7hPa SW 2mph /  3.2km/h 6mph /  9.7km/h 80% 0in /  0.0mm 0.00 W/m2
15:40 39.9 °F /  4.4 °C 34 °F /  1.1 °C 29.8in /  1007.7hPa SW 0.9mph /  1.4km/h 4mph /  6.4km/h 79% 0in /  0.0mm 0.00 W/m2
15:45 39.9 °F /  4.4 °C 34 °F /  1.1 °C 29.7in /  1007.3hPa WSW 2mph /  3.2km/h 2mph /  3.2km/h 79% 0in /  0.0mm 0.00 W/m2
15:50 39.9 °F /  4.4 °C 34 °F /  1.1 °C 29.7in /  1007.3hPa SW 2mph /  3.2km/h 4mph /  6.4km/h 79% 0in /  0.0mm 0.00 W/m2
15:55 39.9 °F /  4.4 °C 34 °F /  1.1 °C 29.7in /  1007.3hPa SW 2.9mph /  4.7km/h 4mph /  6.4km/h 79% 0in /  0.0mm 0.00 W/m2
16:00 39.9 °F /  4.4 °C 34 °F /  1.1 °C 29.7in /  1007.3hPa SW 0.9mph /  1.4km/h 4mph /  6.4km/h 79% 0in /  0.0mm 0.00 W/m2
16:05 39.9 °F /  4.4 °C 34 °F /  1.1 °C 29.7in /  1007.3hPa SW 2.9mph /  4.7km/h 5mph /  8.0km/h 79% 0in /  0.0mm 0.00 W/m2
16:10 39.9 °F /  4.4 °C 33.6 °F /  0.9 °C 29.7in /  1007.0hPa SW 2.9mph /  4.7km/h 6mph /  9.7km/h 78% 0in /  0.0mm 0.00 W/m2
16:15 40.1 °F /  4.5 °C 33.8 °F /  1.0 °C 29.7in /  1007.0hPa WSW 4mph /  6.4km/h 6mph /  9.7km/h 78% 0in /  0.0mm 0.00 W/m2
16:20 40.3 °F /  4.6 °C 34 °F /  1.1 °C 29.7in /  1007.0hPa SSW 2.9mph /  4.7km/h 7mph /  11.3km/h 78% 0in /  0.0mm 0.00 W/m2
16:25 40.3 °F /  4.6 °C 34 °F /  1.1 °C 29.7in /  1007.0hPa SW 2mph /  3.2km/h 7mph /  11.3km/h 78% 0in /  0.0mm 0.00 W/m2
16:30 40.5 °F /  4.7 °C 34.2 °F /  1.2 °C 29.7in /  1007.0hPa SW 0.9mph /  1.4km/h 2mph /  3.2km/h 78% 0in /  0.0mm 0.00 W/m2
16:35 40.5 °F /  4.7 °C 34.2 °F /  1.2 °C 29.7in /  1006.7hPa Calm   4mph /  6.4km/h 78% 0in /  0.0mm 0.00 W/m2
16:40 40.5 °F /  4.7 °C 34.2 °F /  1.2 °C 29.7in /  1006.7hPa SSW 0.9mph /  1.4km/h 4mph /  6.4km/h 78% 0in /  0.0mm 0.00 W/m2
16:45 40.5 °F /  4.7 °C 34.2 °F /  1.2 °C 29.7in /  1006.7hPa SW 2.9mph /  4.7km/h 4mph /  6.4km/h 78% 0in /  0.0mm 0.00 W/m2
16:50 40.5 °F /  4.7 °C 34.2 °F /  1.2 °C 29.7in /  1006.3hPa SW 4.9mph /  7.9km/h 5mph /  8.0km/h 78% 0in /  0.0mm 0.00 W/m2
16:55 40.5 °F /  4.7 °C 33.8 °F /  1.0 °C 29.7in /  1006.3hPa Calm   4mph /  6.4km/h 77% 0in /  0.0mm 0.00 W/m2
17:00 40.5 °F /  4.7 °C 33.8 °F /  1.0 °C 29.7in /  1006.3hPa SW 0.9mph /  1.4km/h 5mph /  8.0km/h 77% 0in /  0.0mm 0.00 W/m2
17:05 40.5 °F /  4.7 °C 33.8 °F /  1.0 °C 29.7in /  1006.0hPa SW 2mph /  3.2km/h 2mph /  3.2km/h 77% 0in /  0.0mm 0.00 W/m2
17:10 40.5 °F /  4.7 °C 33.8 °F /  1.0 °C 29.7in /  1006.3hPa Calm   2mph /  3.2km/h 77% 0in /  0.0mm 0.00 W/m2
17:15 40.3 °F /  4.6 °C 34 °F /  1.1 °C 29.7in /  1006.0hPa WSW 0.9mph /  1.4km/h 8mph /  12.9km/h 78% 0in /  0.0mm 0.00 W/m2
17:20 40.3 °F /  4.6 °C 34 °F /  1.1 °C 29.7in /  1006.0hPa SW 2.9mph /  4.7km/h 7mph /  11.3km/h 78% 0in /  0.0mm 0.00 W/m2
17:25 40.3 °F /  4.6 °C 34 °F /  1.1 °C 29.7in /  1005.6hPa Calm   3mph /  4.8km/h 78% 0in /  0.0mm 0.00 W/m2
17:30 40.3 °F /  4.6 °C 34 °F /  1.1 °C 29.7in /  1005.6hPa SW 2.9mph /  4.7km/h 5mph /  8.0km/h 78% 0in /  0.0mm 0.00 W/m2
17:35 40.3 °F /  4.6 °C 34 °F /  1.1 °C 29.7in /  1005.6hPa SW 2mph /  3.2km/h 3mph /  4.8km/h 78% 0in /  0.0mm 0.00 W/m2
17:40 40.3 °F /  4.6 °C 34 °F /  1.1 °C 29.7in /  1005.6hPa SW 4mph /  6.4km/h 4mph /  6.4km/h 78% 0in /  0.0mm 0.00 W/m2
17:45 40.5 °F /  4.7 °C 34.2 °F /  1.2 °C 29.7in /  1005.3hPa SW 6mph /  9.7km/h 9mph /  14.5km/h 78% 0in /  0.0mm 0.00 W/m2
17:50 40.5 °F /  4.7 °C 34.2 °F /  1.2 °C 29.7in /  1005.0hPa SSW 2mph /  3.2km/h 5mph /  8.0km/h 78% 0in /  0.0mm 0.00 W/m2
17:55 40.5 °F /  4.7 °C 34.2 °F /  1.2 °C 29.7in /  1005.0hPa SW 2mph /  3.2km/h 6mph /  9.7km/h 78% 0in /  0.0mm 0.00 W/m2
18:00 40.5 °F /  4.7 °C 34.2 °F /  1.2 °C 29.7in /  1004.6hPa SW 0.9mph /  1.4km/h 4mph /  6.4km/h 78% 0in /  0.0mm 0.00 W/m2
18:05 40.5 °F /  4.7 °C 34.2 °F /  1.2 °C 29.7in /  1004.6hPa WSW 2mph /  3.2km/h 7mph /  11.3km/h 78% 0in /  0.0mm 0.00 W/m2
18:10 40.5 °F /  4.7 °C 34.2 °F /  1.2 °C 29.7in /  1004.6hPa SW 2mph /  3.2km/h 5mph /  8.0km/h 78% 0in /  0.0mm 0.00 W/m2
18:15 40.5 °F /  4.7 °C 34.2 °F /  1.2 °C 29.7in /  1004.6hPa WSW 2.9mph /  4.7km/h 4mph /  6.4km/h 78% 0in /  0.0mm 0.00 W/m2
18:20 40.6 °F /  4.8 °C 34.3 °F /  1.3 °C 29.7in /  1004.3hPa SW 2.9mph /  4.7km/h 5mph /  8.0km/h 78% 0in /  0.0mm 0.00 W/m2
18:25 40.6 °F /  4.8 °C 34.3 °F /  1.3 °C 29.7in /  1004.3hPa SSW 0.9mph /  1.4km/h 5mph /  8.0km/h 78% 0in /  0.0mm 0.00 W/m2
18:30 40.6 °F /  4.8 °C 34.3 °F /  1.3 °C 29.6in /  1003.9hPa SSW 0.9mph /  1.4km/h 7mph /  11.3km/h 78% 0in /  0.0mm 0.00 W/m2
18:35 40.6 °F /  4.8 °C 34.3 °F /  1.3 °C 29.6in /  1003.9hPa SW 2.9mph /  4.7km/h 4mph /  6.4km/h 78% 0in /  0.0mm 0.00 W/m2
18:41 40.6 °F /  4.8 °C 34.3 °F /  1.3 °C 29.6in /  1003.9hPa WSW 4.9mph /  7.9km/h 6mph /  9.7km/h 78% 0in /  0.0mm 0.00 W/m2
18:45 40.6 °F /  4.8 °C 34.3 °F /  1.3 °C 29.6in /  1003.6hPa SW 2mph /  3.2km/h 4mph /  6.4km/h 78% 0in /  0.0mm 0.00 W/m2
18:50 40.8 °F /  4.9 °C 34.5 °F /  1.4 °C 29.6in /  1003.6hPa WSW 2.9mph /  4.7km/h 6mph /  9.7km/h 78% 0in /  0.0mm 0.00 W/m2
18:55 40.8 °F /  4.9 °C 34.5 °F /  1.4 °C 29.6in /  1003.6hPa SW 2mph /  3.2km/h 8mph /  12.9km/h 78% 0in /  0.0mm 0.00 W/m2
19:00 40.8 °F /  4.9 °C 34.5 °F /  1.4 °C 29.6in /  1003.3hPa WSW 2mph /  3.2km/h 5mph /  8.0km/h 78% 0in /  0.0mm 0.00 W/m2
19:05 40.8 °F /  4.9 °C 34.5 °F /  1.4 °C 29.6in /  1003.3hPa SW 2mph /  3.2km/h 4mph /  6.4km/h 78% 0in /  0.0mm 0.00 W/m2
19:10 40.8 °F /  4.9 °C 34.5 °F /  1.4 °C 29.6in /  1002.9hPa SSW 4mph /  6.4km/h 7mph /  11.3km/h 78% 0in /  0.0mm 0.00 W/m2
19:15 40.8 °F /  4.9 °C 34.5 °F /  1.4 °C 29.6in /  1002.9hPa SW 2mph /  3.2km/h 4mph /  6.4km/h 78% 0in /  0.0mm 0.00 W/m2
19:20 40.8 °F /  4.9 °C 34.5 °F /  1.4 °C 29.6in /  1002.9hPa SW 0.9mph /  1.4km/h 7mph /  11.3km/h 78% 0in /  0.0mm 0.00 W/m2
19:25 40.8 °F /  4.9 °C 34.5 °F /  1.4 °C 29.6in /  1002.6hPa SSW 0.9mph /  1.4km/h 2mph /  3.2km/h 78% 0in /  0.0mm 0.00 W/m2
19:30 40.8 °F /  4.9 °C 34.5 °F /  1.4 °C 29.6in /  1002.6hPa SSW 2.9mph /  4.7km/h 7mph /  11.3km/h 78% 0in /  0.0mm 0.00 W/m2
19:35 40.8 °F /  4.9 °C 34.9 °F /  1.6 °C 29.6in /  1002.6hPa West 4.9mph /  7.9km/h 9mph /  14.5km/h 79% 0in /  0.0mm 0.00 W/m2
19:40 40.8 °F /  4.9 °C 34.9 °F /  1.6 °C 29.6in /  1002.3hPa SW 2.9mph /  4.7km/h 4mph /  6.4km/h 79% 0in /  0.0mm 0.00 W/m2
19:45 40.8 °F /  4.9 °C 34.9 °F /  1.6 °C 29.6in /  1002.3hPa SW 2.9mph /  4.7km/h 3mph /  4.8km/h 79% 0in /  0.0mm 0.00 W/m2
19:50 40.8 °F /  4.9 °C 34.9 °F /  1.6 °C 29.6in /  1001.9hPa SW 4.9mph /  7.9km/h 6mph /  9.7km/h 79% 0in /  0.0mm 0.00 W/m2
19:55 40.8 °F /  4.9 °C 35.1 °F /  1.7 °C 29.6in /  1001.9hPa SSW 0.9mph /  1.4km/h 4mph /  6.4km/h 80% 0in /  0.0mm 0.00 W/m2
20:00 40.8 °F /  4.9 °C 35.1 °F /  1.7 °C 29.6in /  1001.9hPa South 0.9mph /  1.4km/h 6mph /  9.7km/h 80% 0in /  0.0mm 0.00 W/m2
20:05 40.8 °F /  4.9 °C 35.4 °F /  1.9 °C 29.6in /  1001.6hPa SW 2mph /  3.2km/h 7mph /  11.3km/h 81% 0in /  0.0mm 0.00 W/m2
20:10 40.6 °F /  4.8 °C 35.2 °F /  1.8 °C 29.6in /  1001.6hPa SSW 2mph /  3.2km/h 5mph /  8.0km/h 81% 0in /  0.0mm 0.00 W/m2
20:15 40.6 °F /  4.8 °C 35.2 °F /  1.8 °C 29.6in /  1001.2hPa SSW 2mph /  3.2km/h 3mph /  4.8km/h 81% 0in /  0.0mm 0.00 W/m2
20:20 40.6 °F /  4.8 °C 35.6 °F /  2.0 °C 29.6in /  1001.2hPa SSW 0.9mph /  1.4km/h 4mph /  6.4km/h 82% 0in /  0.0mm 0.00 W/m2
20:25 40.5 °F /  4.7 °C 35.4 °F /  1.9 °C 29.6in /  1001.2hPa SSW 2.9mph /  4.7km/h 4mph /  6.4km/h 82% 0in /  0.0mm 0.00 W/m2
20:30 40.5 °F /  4.7 °C 35.8 °F /  2.1 °C 29.6in /  1000.9hPa South 2mph /  3.2km/h 4mph /  6.4km/h 83% 0in /  0.0mm 0.00 W/m2
20:35 40.5 °F /  4.7 °C 35.8 °F /  2.1 °C 29.6in /  1000.9hPa South 0.9mph /  1.4km/h 2mph /  3.2km/h 83% 0in /  0.0mm 0.00 W/m2
20:40 40.3 °F /  4.6 °C 35.6 °F /  2.0 °C 29.6in /  1000.6hPa Calm   4mph /  6.4km/h 83% 0in /  0.0mm 0.00 W/m2
20:45 40.3 °F /  4.6 °C 35.8 °F /  2.1 °C 29.6in /  1000.6hPa South 2mph /  3.2km/h 2mph /  3.2km/h 84% 0.01in /  0.3mm 0.00 W/m2
20:50 40.3 °F /  4.6 °C 35.8 °F /  2.1 °C 29.6in /  1000.6hPa SSE 0.9mph /  1.4km/h 4mph /  6.4km/h 84% 0.01in /  0.3mm 0.00 W/m2
20:55 40.3 °F /  4.6 °C 36.1 °F /  2.3 °C 29.5in /  1000.2hPa SSE 2mph /  3.2km/h 4mph /  6.4km/h 85% 0.01in /  0.3mm 0.00 W/m2
21:00 40.1 °F /  4.5 °C 36 °F /  2.2 °C 29.5in /  999.9hPa SSE 2mph /  3.2km/h 4mph /  6.4km/h 85% 0.01in /  0.3mm 0.00 W/m2
21:05 39.9 °F /  4.4 °C 36.1 °F /  2.3 °C 29.5in /  999.9hPa SE 2mph /  3.2km/h 4mph /  6.4km/h 86% 0.02in /  0.5mm 0.00 W/m2
21:10 39.9 °F /  4.4 °C 36.1 °F /  2.3 °C 29.5in /  999.5hPa SE 2.9mph /  4.7km/h 5mph /  8.0km/h 86% 0.02in /  0.5mm 0.00 W/m2
21:15 39.9 °F /  4.4 °C 36.1 °F /  2.3 °C 29.5in /  999.5hPa ESE 2.9mph /  4.7km/h 5mph /  8.0km/h 86% 0.02in /  0.5mm 0.00 W/m2
21:20 39.7 °F /  4.3 °C 36.1 °F /  2.3 °C 29.5in /  999.5hPa ESE 2mph /  3.2km/h 4mph /  6.4km/h 87% 0.02in /  0.5mm 0.00 W/m2
21:26 39.7 °F /  4.3 °C 36.1 °F /  2.3 °C 29.5in /  999.2hPa Calm   3mph /  4.8km/h 87% 0.03in /  0.8mm 0.00 W/m2
21:30 39.7 °F /  4.3 °C 36.1 °F /  2.3 °C 29.5in /  999.2hPa ESE 2.9mph /  4.7km/h 4mph /  6.4km/h 87% 0.03in /  0.8mm 0.00 W/m2
21:35 39.6 °F /  4.2 °C 36.3 °F /  2.4 °C 29.5in /  998.9hPa ESE 2.9mph /  4.7km/h 8mph /  12.9km/h 88% 0.04in /  1.0mm 0.00 W/m2
21:40 39.4 °F /  4.1 °C 36.1 °F /  2.3 °C 29.5in /  998.5hPa SE 2mph /  3.2km/h 7mph /  11.3km/h 88% 0.04in /  1.0mm 0.00 W/m2
21:45 39.4 °F /  4.1 °C 36.1 °F /  2.3 °C 29.5in /  998.5hPa SSE 2.9mph /  4.7km/h 5mph /  8.0km/h 88% 0.03in /  0.8mm 0.00 W/m2
21:50 39.2 °F /  4.0 °C 36.3 °F /  2.4 °C 29.5in /  998.2hPa ESE 4mph /  6.4km/h 4mph /  6.4km/h 89% 0.04in /  1.0mm 0.00 W/m2
21:55 39.2 °F /  4.0 °C 36.3 °F /  2.4 °C 29.5in /  998.2hPa SE 2mph /  3.2km/h 4mph /  6.4km/h 89% 0.05in /  1.3mm 0.00 W/m2
22:00 39 °F /  3.9 °C 36.1 °F /  2.3 °C 29.5in /  997.9hPa SSE 4mph /  6.4km/h 6mph /  9.7km/h 89% 0.05in /  1.3mm 0.00 W/m2
22:05 39 °F /  3.9 °C 36.1 °F /  2.3 °C 29.5in /  997.9hPa East 4.9mph /  7.9km/h 6mph /  9.7km/h 89% 0.05in /  1.3mm 0.00 W/m2
22:10 38.8 °F /  3.8 °C 36.1 °F /  2.3 °C 29.5in /  997.5hPa SSE 0.9mph /  1.4km/h 7mph /  11.3km/h 90% 0.06in /  1.5mm 0.00 W/m2
22:15 38.8 °F /  3.8 °C 36.1 °F /  2.3 °C 29.5in /  997.5hPa SSE 0.9mph /  1.4km/h 7mph /  11.3km/h 90% 0.05in /  1.3mm 0.00 W/m2
22:20 38.8 °F /  3.8 °C 36.1 °F /  2.3 °C 29.5in /  997.2hPa ESE 2.9mph /  4.7km/h 6mph /  9.7km/h 90% 0.06in /  1.5mm 0.00 W/m2
22:25 38.8 °F /  3.8 °C 36.1 °F /  2.3 °C 29.4in /  996.8hPa South 4mph /  6.4km/h 5mph /  8.0km/h 90% 0.05in /  1.3mm 0.00 W/m2
22:30 38.8 °F /  3.8 °C 36.1 °F /  2.3 °C 29.4in /  996.8hPa ESE 2.9mph /  4.7km/h 5mph /  8.0km/h 90% 0.05in /  1.3mm 0.00 W/m2
22:35 38.7 °F /  3.7 °C 36 °F /  2.2 °C 29.4in /  996.8hPa ESE 2.9mph /  4.7km/h 5mph /  8.0km/h 90% 0.05in /  1.3mm 0.00 W/m2
22:40 38.7 °F /  3.7 °C 36 °F /  2.2 °C 29.4in /  996.8hPa ESE 4mph /  6.4km/h 9mph /  14.5km/h 90% 0.05in /  1.3mm 0.00 W/m2
22:45 38.7 °F /  3.7 °C 36 °F /  2.2 °C 29.4in /  996.5hPa ESE 0.9mph /  1.4km/h 5mph /  8.0km/h 90% 0.06in /  1.5mm 0.00 W/m2
22:50 38.8 °F /  3.8 °C 36.1 °F /  2.3 °C 29.4in /  996.5hPa ENE 4.9mph /  7.9km/h 7mph /  11.3km/h 90% 0.05in /  1.3mm 0.00 W/m2
22:55 38.7 °F /  3.7 °C 36.3 °F /  2.4 °C 29.4in /  996.2hPa East 2mph /  3.2km/h 4mph /  6.4km/h 91% 0.04in /  1.0mm 0.00 W/m2
23:00 38.7 °F /  3.7 °C 36.3 °F /  2.4 °C 29.4in /  996.2hPa East 4.9mph /  7.9km/h 8mph /  12.9km/h 91% 0.05in /  1.3mm 0.00 W/m2
23:05 38.7 °F /  3.7 °C 36.3 °F /  2.4 °C 29.4in /  996.2hPa ESE 4.9mph /  7.9km/h 6mph /  9.7km/h 91% 0.04in /  1.0mm 0.00 W/m2
23:10 38.7 °F /  3.7 °C 36.3 °F /  2.4 °C 29.4in /  995.8hPa ENE 2mph /  3.2km/h 5mph /  8.0km/h 91% 0.04in /  1.0mm 0.00 W/m2
23:15 38.7 °F /  3.7 °C 36.3 °F /  2.4 °C 29.4in /  995.8hPa ENE 6mph /  9.7km/h 9mph /  14.5km/h 91% 0.05in /  1.3mm 0.00 W/m2
23:20 38.7 °F /  3.7 °C 36.3 °F /  2.4 °C 29.4in /  995.8hPa East 4mph /  6.4km/h 8mph /  12.9km/h 91% 0.05in /  1.3mm 0.00 W/m2
23:25 38.5 °F /  3.6 °C 36.1 °F /  2.3 °C 29.4in /  995.8hPa ENE 0.9mph /  1.4km/h 7mph /  11.3km/h 91% 0.05in /  1.3mm 0.00 W/m2
23:30 38.5 °F /  3.6 °C 36.1 °F /  2.3 °C 29.4in /  995.5hPa ENE 4.9mph /  7.9km/h 9mph /  14.5km/h 91% 0.06in /  1.5mm 0.00 W/m2
23:35 38.5 °F /  3.6 °C 36.1 °F /  2.3 °C 29.4in /  995.5hPa East 0.9mph /  1.4km/h 6mph /  9.7km/h 91% 0.05in /  1.3mm 0.00 W/m2
23:40 38.3 °F /  3.5 °C 36 °F /  2.2 °C 29.4in /  995.5hPa East 0.9mph /  1.4km/h 4mph /  6.4km/h 91% 0.05in /  1.3mm 0.00 W/m2
23:45 38.1 °F /  3.4 °C 36 °F /  2.2 °C 29.4in /  995.1hPa ESE 2mph /  3.2km/h 8mph /  12.9km/h 92% 0.05in /  1.3mm 0.00 W/m2
23:50 38.1 °F /  3.4 °C 36 °F /  2.2 °C 29.4in /  995.1hPa ENE 4.9mph /  7.9km/h 7mph /  11.3km/h 92% 0.05in /  1.3mm 0.00 W/m2
23:55 38.1 °F /  3.4 °C 36 °F /  2.2 °C 29.4in /  995.1hPa ESE 2.9mph /  4.7km/h 7mph /  11.3km/h 92% 0.06in /  1.5mm 0.00 W/m2